Time;durP1;ratioP1;P1;durP2;ratioP2;P2;SDS_P1;SDS_P2;PMS_P1;PMS_P2;Temp;Humidity;BMP_temperature;BMP_pressure;BME280_temperature;BME280_humidity;BME280_pressure;Samples;Min_cycle;Max_cycle;Signal;HPM_P1;HPM_P2
2022/07/14 00:01:58;;;;;;;12.45;2.55;;;;;;;15.47;82.73;101319.94;4918007;28;20106;-87
2022/07/14 00:04:25;;;;;;;14.18;2.72;;;;;;;15.43;82.75;101318.25;4923831;28;21961;-86
2022/07/14 00:06:52;;;;;;;8.60;2.58;;;;;;;15.40;83.48;101323.59;4915008;28;20050;-85
2022/07/14 00:09:18;;;;;;;12.45;2.50;;;;;;;15.38;83.60;101317.47;4915563;28;20057;-85
2022/07/14 00:11:46;;;;;;;10.98;2.30;;;;;;;15.41;83.94;101327.09;4916943;28;20051;-84
2022/07/14 00:14:12;;;;;;;8.82;2.75;;;;;;;15.41;84.22;101321.81;4912650;28;20133;-85
2022/07/14 00:16:39;;;;;;;12.50;3.88;;;;;;;15.43;84.00;101325.31;4936395;28;20439;-83
2022/07/14 00:19:05;;;;;;;12.05;3.70;;;;;;;15.42;83.93;101316.50;4918222;28;20043;-84
2022/07/14 00:21:32;;;;;;;12.48;2.88;;;;;;;15.44;84.69;101322.63;4929496;28;20049;-86
2022/07/14 00:23:58;;;;;;;8.98;2.42;;;;;;;15.40;84.62;101331.50;4916395;28;20046;-85
2022/07/14 00:26:25;;;;;;;9.95;2.40;;;;;;;15.37;84.59;101337.72;4914100;28;20645;-84
2022/07/14 00:28:51;;;;;;;10.30;2.92;;;;;;;15.35;84.44;101334.22;4917228;28;20146;-85
2022/07/14 00:31:18;;;;;;;12.45;2.20;;;;;;;15.34;85.26;101328.97;4920536;28;20094;-83
2022/07/14 00:33:45;;;;;;;11.32;2.47;;;;;;;15.30;85.39;101322.88;4909343;28;20051;-87
2022/07/14 00:36:11;;;;;;;13.43;3.10;;;;;;;15.30;85.62;101322.88;4929681;28;20062;-85
2022/07/14 00:38:38;;;;;;;13.40;2.92;;;;;;;15.29;85.85;101315.00;4929610;28;20062;-84
2022/07/14 00:41:05;;;;;;;16.58;3.35;;;;;;;15.29;86.03;101313.25;4913684;28;20059;-85
2022/07/14 00:43:31;;;;;;;13.18;3.03;;;;;;;15.27;85.92;101320.31;4915306;28;20055;-86
2022/07/14 00:45:58;;;;;;;15.30;2.97;;;;;;;15.27;85.97;101315.03;4936527;28;20047;-84
2022/07/14 00:48:27;;;;;;;7.80;2.28;;;;;;;15.24;86.17;101319.47;4927656;28;20058;-84
2022/07/14 00:50:54;;;;;;;7.50;2.10;;;;;;;15.20;86.26;101316.91;4935936;28;20070;-84
2022/07/14 00:53:21;;;;;;;11.52;2.92;;;;;;;15.19;86.94;101317.78;4929466;28;20063;-83
2022/07/14 00:55:47;;;;;;;9.05;2.83;;;;;;;15.17;86.77;101310.81;4912611;28;20055;-83
2022/07/14 00:58:14;;;;;;;12.57;3.15;;;;;;;15.16;87.36;101316.97;4915785;28;20051;-85
2022/07/14 01:00:41;;;;;;;12.05;2.35;;;;;;;15.14;86.83;101317.00;4918787;28;20044;-84
2022/07/14 01:03:08;;;;;;;7.80;2.25;;;;;;;15.07;86.83;101320.66;4915610;28;20051;-83
2022/07/14 01:05:35;;;;;;;11.50;2.80;;;;;;;15.02;87.13;101327.78;4932690;28;20065;-87
2022/07/14 01:08:02;;;;;;;12.45;3.40;;;;;;;14.96;87.71;101325.25;4921289;28;20162;-86
2022/07/14 01:10:29;;;;;;;9.73;2.67;;;;;;;14.93;87.65;101327.91;4946292;28;20332;-88
2022/07/14 01:13:01;;;;;;;9.55;2.28;;;;;;;14.92;87.90;101318.28;4933184;28;20050;-86
2022/07/14 01:15:28;;;;;;;10.90;2.88;;;;;;;14.92;87.55;101318.28;4933332;28;20049;-89
2022/07/14 01:17:55;;;;;;;10.98;2.42;;;;;;;14.91;88.26;101327.06;4935963;28;20146;-87
2022/07/14 01:20:23;;;;;;;11.32;2.08;;;;;;;14.91;87.63;101327.94;4932467;28;20055;-89
2022/07/14 01:22:49;;;;;;;15.27;3.25;;;;;;;14.85;88.06;101325.41;4930492;28;20059;-86
2022/07/14 01:25:18;;;;;;;6.32;2.17;;;;;;;14.83;87.97;101322.78;4933908;28;20102;-87
2022/07/14 01:27:46;;;;;;;10.77;2.50;;;;;;;14.80;88.20;101325.47;4917052;28;20063;-87
2022/07/14 01:30:15;;;;;;;13.50;2.40;;;;;;;14.79;88.82;101312.34;4952598;28;20051;-87
2022/07/14 01:32:42;;;;;;;15.88;3.40;;;;;;;14.76;88.80;101313.25;4919532;28;20047;-86
2022/07/14 01:35:10;;;;;;;13.40;2.85;;;;;;;14.76;88.84;101315.88;4924105;28;20050;-87
2022/07/14 01:37:38;;;;;;;11.27;2.85;;;;;;;14.74;88.83;101317.66;4933168;28;20150;-87
2022/07/14 01:40:06;;;;;;;11.63;2.85;;;;;;;14.72;89.06;101322.09;4910138;28;20886;-88
2022/07/14 01:42:33;;;;;;;7.35;2.95;;;;;;;14.69;89.37;101325.66;4915519;28;20042;-88
2022/07/14 01:44:59;;;;;;;13.25;3.35;;;;;;;14.68;89.58;101323.06;4936318;28;20046;-87
2022/07/14 01:47:27;;;;;;;7.38;2.20;;;;;;;14.65;89.52;101330.97;4923339;28;20054;-87
2022/07/14 01:49:53;;;;;;;12.10;2.42;;;;;;;14.59;90.00;101318.75;4936899;28;20054;-87
2022/07/14 01:52:22;;;;;;;10.65;4.03;;;;;;;14.56;90.67;101321.41;4935076;28;20785;-86
2022/07/14 01:54:48;;;;;;;12.48;3.17;;;;;;;14.53;90.46;101329.38;4917198;28;20051;-86
2022/07/14 01:57:15;;;;;;;12.80;3.28;;;;;;;14.49;90.87;101330.31;4916137;28;20138;-86
2022/07/14 01:59:42;;;;;;;9.65;2.50;;;;;;;14.44;91.04;101334.78;4936913;28;20043;-87
2022/07/14 02:02:08;;;;;;;10.32;2.25;;;;;;;14.39;91.85;101340.97;4938339;28;20049;-86
2022/07/14 02:04:35;;;;;;;10.32;2.05;;;;;;;14.39;91.33;101340.97;4912455;28;20595;-87
2022/07/14 02:07:02;;;;;;;9.68;2.63;;;;;;;14.35;91.53;101346.28;4936796;28;20629;-88
2022/07/14 02:12:12;;;;;;;12.32;2.80;;;;;;;14.22;92.21;101341.22;4918376;28;20039;-87
2022/07/14 02:14:38;;;;;;;9.73;2.67;;;;;;;14.19;92.52;101337.75;4919885;28;20050;-88
2022/07/14 02:17:06;;;;;;;9.60;2.88;;;;;;;14.15;92.90;101339.53;4916524;28;20395;-87
2022/07/14 02:19:32;;;;;;;10.57;2.95;;;;;;;14.14;92.95;101339.56;4917224;28;20244;-86
2022/07/14 02:22:00;;;;;;;16.70;2.40;;;;;;;14.09;93.00;101339.59;4912482;28;20070;-86
2022/07/14 02:24:26;;;;;;;9.43;2.75;;;;;;;14.07;93.63;101347.53;4933184;28;20055;-86
2022/07/14 02:26:53;;;;;;;12.38;2.55;;;;;;;14.05;93.81;101341.44;4951530;28;20134;-87
2022/07/14 02:29:21;;;;;;;12.50;3.42;;;;;;;14.07;93.84;101344.91;4919284;28;20054;-86
2022/07/14 02:31:50;;;;;;;9.85;2.80;;;;;;;14.10;93.76;101345.75;4936742;28;20050;-85
2022/07/14 02:34:17;;;;;;;10.30;2.22;;;;;;;14.12;93.83;101349.22;4930884;28;20130;-87
2022/07/14 02:36:45;;;;;;;10.07;3.40;;;;;;;14.09;94.46;101350.13;4950991;28;20640;-84
2022/07/14 02:39:15;;;;;;;11.60;3.03;;;;;;;14.05;94.42;101343.16;4934770;28;20051;-87
2022/07/14 02:41:44;;;;;;;11.48;4.38;;;;;;;13.99;94.51;101343.28;4917677;28;20484;-88
2022/07/14 02:44:11;;;;;;;5.55;2.28;;;;;;;13.96;94.81;101345.91;4932457;28;21015;-86
2022/07/14 02:46:38;;;;;;;9.90;2.33;;;;;;;13.96;95.02;101351.19;4921525;28;20062;-87
2022/07/14 02:49:06;;;;;;;9.63;2.25;;;;;;;13.95;94.78;101346.81;4920289;28;20054;-87
2022/07/14 02:51:33;;;;;;;12.32;2.83;;;;;;;13.95;94.86;101352.97;4933420;28;20755;-88
2022/07/14 02:54:00;;;;;;;8.88;3.00;;;;;;;13.94;94.69;101345.09;4914427;29;20091;-86
2022/07/14 02:56:27;;;;;;;10.00;2.15;;;;;;;13.93;94.69;101340.69;4943747;28;20067;-87
2022/07/14 02:58:54;;;;;;;13.30;2.67;;;;;;;13.95;94.88;101342.44;4929832;28;20075;-88
2022/07/14 03:01:21;;;;;;;8.07;2.17;;;;;;;13.98;94.41;101342.38;4911555;29;20039;-85
2022/07/14 03:03:48;;;;;;;10.77;2.92;;;;;;;14.00;94.36;101339.72;4931173;29;20095;-86
2022/07/14 03:06:18;;;;;;;7.85;2.30;;;;;;;14.01;94.63;101342.31;4931918;29;20055;-85
2022/07/14 03:08:46;;;;;;;11.95;3.22;;;;;;;14.02;94.71;101330.06;4917011;29;20077;-87
2022/07/14 03:11:13;;;;;;;7.38;2.58;;;;;;;14.04;94.42;101336.16;4931957;29;20051;-86
2022/07/14 03:13:41;;;;;;;9.48;2.45;;;;;;;14.01;94.74;101346.72;4927129;29;20095;-88
2022/07/14 03:16:10;;;;;;;9.65;2.53;;;;;;;13.98;95.12;101352.06;4932924;29;20111;-87
2022/07/14 03:18:39;;;;;;;15.93;3.78;;;;;;;13.93;95.64;101341.56;4917250;29;20052;-87
2022/07/14 03:21:11;;;;;;;9.25;2.60;;;;;;;13.87;95.84;101345.16;4914345;29;20142;-87
2022/07/14 03:23:38;;;;;;;15.88;3.53;;;;;;;13.81;95.80;101334.69;4913331;29;20059;-85
2022/07/14 03:26:05;;;;;;;11.45;2.35;;;;;;;13.76;95.95;101331.22;4932478;29;20073;-87
2022/07/14 03:28:32;;;;;;;8.60;2.65;;;;;;;13.70;96.46;101331.28;4921787;29;20070;-86
2022/07/14 03:30:59;;;;;;;10.80;2.95;;;;;;;13.62;97.23;101334.00;4934323;29;20063;-87
2022/07/14 03:33:26;;;;;;;13.35;4.95;;;;;;;13.59;97.50;101331.41;4929987;29;20482;-86
2022/07/14 03:35:52;;;;;;;9.73;3.03;;;;;;;13.60;97.92;101340.16;4933984;29;20130;-86
2022/07/14 03:38:20;;;;;;;8.32;2.90;;;;;;;13.59;97.87;101334.03;4934901;29;20134;-88
2022/07/14 03:40:47;;;;;;;10.30;2.58;;;;;;;13.63;97.69;101329.63;4949547;28;20154;-85
2022/07/14 03:43:14;;;;;;;12.35;3.08;;;;;;;13.62;97.74;101328.75;4915325;29;20050;-87
2022/07/14 03:45:40;;;;;;;18.35;3.95;;;;;;;13.64;97.78;101334.88;4935460;29;20135;-86
2022/07/14 03:48:08;;;;;;;12.27;3.40;;;;;;;13.69;97.83;101342.72;4912194;29;20062;-86
2022/07/14 03:50:38;;;;;;;11.27;2.63;;;;;;;13.72;97.47;101342.69;4930349;29;20073;-85
2022/07/14 03:53:05;;;;;;;13.13;3.25;;;;;;;13.72;97.53;101337.41;4926511;28;20157;-86
2022/07/14 03:55:33;;;;;;;10.32;2.90;;;;;;;13.77;97.02;101346.13;4919485;29;20068;-86
2022/07/14 03:58:02;;;;;;;14.25;2.65;;;;;;;13.83;96.21;101343.44;4915934;29;20052;-85
2022/07/14 04:00:29;;;;;;;11.75;3.60;;;;;;;13.84;96.15;101337.25;4929309;29;20054;-84
2022/07/14 04:02:56;;;;;;;7.40;2.38;;;;;;;13.91;96.16;101340.72;4933094;29;20036;-87
2022/07/14 04:05:39;;;;;;;10.53;4.13;;;;;;;13.97;96.01;101348.53;4936758;29;20277;-86
2022/07/14 04:08:14;;;;;;;19.73;3.17;;;;;;;14.01;95.42;101352.00;4935628;29;20047;-85
2022/07/14 04:10:55;;;;;;;14.95;3.15;;;;;;;14.05;95.42;101348.44;4927691;29;20523;-86
2022/07/14 04:13:24;;;;;;;7.45;2.40;;;;;;;14.10;94.76;101345.75;4919628;28;20449;-85
2022/07/14 04:15:51;;;;;;;19.52;3.85;;;;;;;14.16;94.25;101354.44;4934769;28;20043;-85
2022/07/14 04:18:18;;;;;;;10.52;2.38;;;;;;;14.20;93.91;101348.25;4934198;28;20081;-86
2022/07/14 04:20:50;;;;;;;8.85;2.15;;;;;;;14.23;93.74;101340.28;4932465;29;20483;-84
2022/07/14 04:23:18;;;;;;;6.63;2.10;;;;;;;14.30;93.13;101337.59;4913787;29;20055;-85
2022/07/14 04:25:45;;;;;;;5.28;2.10;;;;;;;14.35;92.84;101336.66;4918316;29;20067;-86
2022/07/14 04:28:12;;;;;;;10.23;2.65;;;;;;;14.41;92.57;101337.47;4934024;29;20055;-86
2022/07/14 04:30:39;;;;;;;9.43;2.33;;;;;;;14.42;92.25;101340.06;4931369;29;20071;-86
2022/07/14 04:33:05;;;;;;;12.57;3.63;;;;;;;14.39;92.36;101348.88;4930646;29;20095;-86
2022/07/14 04:35:32;;;;;;;17.70;2.70;;;;;;;14.29;92.70;101343.75;4932274;29;20051;-87
2022/07/14 04:37:59;;;;;;;14.25;2.78;;;;;;;14.22;92.99;101351.75;4930377;29;20066;-86
2022/07/14 04:40:26;;;;;;;7.00;2.58;;;;;;;14.16;93.48;101356.22;4917070;29;20056;-86
2022/07/14 04:42:52;;;;;;;16.83;3.75;;;;;;;14.13;93.99;101364.13;4918482;29;20052;-85
2022/07/14 04:45:20;;;;;;;18.95;3.00;;;;;;;14.14;93.87;101360.63;4921095;29;20079;-87
2022/07/14 04:47:47;;;;;;;15.00;3.53;;;;;;;14.15;94.16;101357.09;4920891;29;20150;-87
2022/07/14 04:53:00;;;;;;;11.65;2.42;;;;;;;14.17;94.02;101353.56;4937255;28;20106;-86
2022/07/14 04:55:27;;;;;;;5.85;2.13;;;;;;;14.22;93.73;101348.22;4929294;29;20137;-85
2022/07/14 04:57:54;;;;;;;16.23;3.08;;;;;;;14.32;93.27;101349.84;4914484;29;20052;-84
2022/07/14 05:00:21;;;;;;;11.95;3.05;;;;;;;14.43;92.67;101346.19;4918740;29;20054;-86
2022/07/14 05:02:48;;;;;;;11.90;2.92;;;;;;;14.48;91.85;101342.59;4947655;28;20130;-86
2022/07/14 05:05:15;;;;;;;11.13;2.40;;;;;;;14.49;91.40;101346.97;4911658;29;20107;-84
2022/07/14 05:07:42;;;;;;;4.72;2.25;;;;;;;14.52;90.98;101335.53;4929979;29;20059;-86
2022/07/14 05:10:09;;;;;;;8.43;2.00;;;;;;;14.55;90.45;101333.72;4926323;28;20054;-86
2022/07/14 05:12:36;;;;;;;6.97;3.38;;;;;;;14.60;89.73;101330.16;4911773;29;20044;-85
2022/07/14 05:15:03;;;;;;;10.02;2.80;;;;;;;14.58;89.42;101339.84;4914759;29;20047;-85
2022/07/14 05:17:30;;;;;;;12.05;2.35;;;;;;;14.54;89.66;101337.25;4931914;29;20206;-87
2022/07/14 05:19:57;;;;;;;19.00;3.30;;;;;;;14.55;89.53;101335.50;4931537;29;20039;-85
2022/07/14 05:22:25;;;;;;;12.25;2.75;;;;;;;14.57;89.30;101331.06;4913965;29;20541;-85
2022/07/14 05:24:52;;;;;;;6.13;1.92;;;;;;;14.63;88.84;101340.66;4913762;29;20150;-84
2022/07/14 05:27:19;;;;;;;9.55;3.00;;;;;;;14.69;87.76;101340.56;4913063;29;20512;-86
2022/07/14 05:29:46;;;;;;;10.20;2.33;;;;;;;14.72;87.05;101336.13;4935569;29;20063;-85
2022/07/14 05:32:17;;;;;;;8.30;1.98;;;;;;;14.79;86.38;101339.53;4930881;29;20139;-87
2022/07/14 05:34:45;;;;;;;8.88;2.47;;;;;;;14.82;86.17;101343.91;4913032;29;20054;-87
2022/07/14 05:37:12;;;;;;;9.20;1.98;;;;;;;14.76;86.05;101346.63;4914577;29;20096;-88
2022/07/14 05:39:39;;;;;;;11.02;2.33;;;;;;;14.75;86.47;101339.63;4916293;29;20051;-85
2022/07/14 05:42:06;;;;;;;8.70;2.78;;;;;;;14.77;85.89;101343.09;4913169;29;20047;-85
2022/07/14 05:44:35;;;;;;;14.77;2.53;;;;;;;14.76;85.84;101344.88;4930124;29;20341;-86
2022/07/14 05:47:02;;;;;;;14.02;2.55;;;;;;;14.80;85.79;101348.34;4931126;28;20051;-86
2022/07/14 05:49:28;;;;;;;13.10;3.08;;;;;;;14.79;86.03;101350.09;4911091;29;20051;-87
2022/07/14 05:51:55;;;;;;;9.13;3.33;;;;;;;14.77;86.27;101351.00;4919464;28;20411;-88
2022/07/14 05:54:22;;;;;;;8.32;2.75;;;;;;;14.75;86.12;101335.22;4949560;28;20545;-85
2022/07/14 05:56:50;;;;;;;5.47;2.53;;;;;;;14.76;85.53;101336.97;4939819;28;20059;-86
2022/07/14 05:59:17;;;;;;;6.63;2.63;;;;;;;14.76;85.20;101330.81;4956108;28;20083;-85
2022/07/14 06:02:06;;;;;;;11.02;4.55;;;;;;;14.86;83.79;101328.03;4920062;28;20410;-87
2022/07/14 06:04:33;;;;;;;7.57;1.98;;;;;;;14.82;83.42;101325.44;4915653;28;20146;-86
2022/07/14 06:07:00;;;;;;;10.43;2.00;;;;;;;14.83;83.56;101325.41;4934855;28;20125;-87
2022/07/14 06:09:26;;;;;;;6.18;1.85;;;;;;;14.96;82.21;101325.25;4936301;28;20089;-86
2022/07/14 06:11:54;;;;;;;7.80;1.70;;;;;;;15.09;80.09;101321.50;4919342;28;20406;-87
2022/07/14 06:14:21;;;;;;;10.13;1.63;;;;;;;15.21;78.19;101315.13;4916460;28;20085;-87
2022/07/14 06:16:48;;;;;;;9.05;2.17;;;;;;;15.30;78.24;101312.31;4919160;28;20075;-87
2022/07/14 06:19:24;;;;;;;14.55;2.28;;;;;;;15.42;76.76;101311.22;4933135;28;20050;-85
2022/07/14 06:21:57;;;;;;;7.95;1.83;;;;;;;15.47;75.94;101313.78;4912535;28;20058;-87
2022/07/14 06:24:26;;;;;;;9.73;2.08;;;;;;;15.51;75.38;101310.19;4910482;28;20705;-86
2022/07/14 06:26:56;;;;;;;5.38;1.80;;;;;;;15.58;75.39;101308.31;4919620;28;20083;-86
2022/07/14 06:29:23;;;;;;;5.60;1.40;;;;;;;15.65;74.72;101297.59;4920676;28;20061;-84
2022/07/14 06:31:55;;;;;;;8.10;2.08;;;;;;;15.72;73.53;101293.06;4917275;28;20051;-84
2022/07/14 06:34:23;;;;;;;10.85;1.52;;;;;;;15.76;73.06;101288.59;4918750;28;20054;-86
2022/07/14 06:36:50;;;;;;;4.28;1.48;;;;;;;15.73;71.83;101289.53;4916355;28;20043;-85
2022/07/14 06:39:16;;;;;;;3.05;1.58;;;;;;;15.66;72.07;101286.16;4936192;28;20454;-85
2022/07/14 06:41:46;;;;;;;12.30;2.55;;;;;;;15.74;72.51;101298.34;4930224;28;20051;-83
2022/07/14 06:44:13;;;;;;;9.20;1.85;;;;;;;15.92;71.95;101299.72;4933275;28;20055;-82
2022/07/14 06:46:40;;;;;;;8.48;1.88;;;;;;;16.15;70.67;101299.25;4923082;28;20133;-87
2022/07/14 06:49:07;;;;;;;5.88;2.00;;;;;;;16.35;69.99;101302.31;4935748;28;20035;-85
2022/07/14 06:51:34;;;;;;;10.38;2.55;;;;;;;16.64;68.18;101303.41;4938145;28;20355;-84
2022/07/14 06:54:00;;;;;;;8.48;2.40;;;;;;;16.81;67.66;101294.22;4914710;28;20049;-87
2022/07/14 06:56:27;;;;;;;5.00;2.30;;;;;;;16.87;66.73;101291.44;4935628;28;20039;-87
2022/07/14 06:58:54;;;;;;;7.88;1.95;;;;;;;16.98;66.05;101301.75;4938074;28;20370;-86
2022/07/14 07:01:25;;;;;;;9.10;2.47;;;;;;;17.13;65.50;101304.00;4923581;28;20051;-87
2022/07/14 07:03:52;;;;;;;10.10;2.22;;;;;;;17.24;63.90;101302.88;4936217;28;20035;-85
2022/07/14 07:09:03;;;;;;;7.10;1.92;;;;;;;17.20;64.63;101294.13;4920340;28;20035;-87
2022/07/14 07:11:31;;;;;;;8.23;2.05;;;;;;;17.34;63.61;101304.38;4934106;28;20243;-86
2022/07/14 07:13:57;;;;;;;5.50;1.58;;;;;;;17.41;63.89;101300.63;4915013;28;20070;-85
2022/07/14 07:16:25;;;;;;;4.45;2.15;;;;;;;17.63;62.48;101295.59;4916900;28;20545;-86
2022/07/14 07:18:51;;;;;;;9.20;1.52;;;;;;;17.81;61.26;101288.06;4934516;28;20047;-84
2022/07/14 07:21:20;;;;;;;4.80;1.70;;;;;;;17.90;60.43;101293.09;4920754;28;20055;-84
2022/07/14 07:23:51;;;;;;;6.65;1.45;;;;;;;17.95;60.70;101295.63;4932750;28;20130;-86
2022/07/14 07:26:20;;;;;;;6.15;1.45;;;;;;;18.28;60.01;101283.13;4933957;28;20043;-85
2022/07/14 07:28:47;;;;;;;4.90;2.22;;;;;;;18.93;56.17;101280.19;4936845;28;20130;-84
2022/07/14 07:31:15;;;;;;;6.43;1.50;;;;;;;19.33;54.73;101277.03;4923065;28;20053;-84
2022/07/14 07:33:42;;;;;;;8.27;1.65;;;;;;;19.56;54.68;101274.47;4916168;28;20058;-85
2022/07/14 07:36:09;;;;;;;6.50;1.85;;;;;;;20.12;53.22;101271.47;4920708;28;20055;-87
2022/07/14 07:38:35;;;;;;;4.18;1.33;;;;;;;20.86;50.89;101262.34;4921895;28;20138;-86
2022/07/14 07:41:02;;;;;;;5.07;1.23;;;;;;;21.68;50.07;101273.88;4919137;28;20051;-85
2022/07/14 07:43:30;;;;;;;7.57;1.35;;;;;;;22.45;48.46;101268.47;4921493;28;20106;-86
2022/07/14 07:45:57;;;;;;;3.15;1.05;;;;;;;22.99;45.31;101264.91;4918427;28;20054;-84
2022/07/14 07:48:24;;;;;;;1.55;0.98;;;;;;;22.94;45.62;101272.28;4955381;28;20051;-84
2022/07/14 07:50:51;;;;;;;4.97;1.30;;;;;;;22.69;46.39;101272.69;4920675;28;20097;-85
2022/07/14 07:53:20;;;;;;;2.17;1.45;;;;;;;22.74;46.20;101268.84;4930909;29;20204;-86
2022/07/14 07:55:47;;;;;;;4.35;1.48;;;;;;;22.70;45.83;101272.59;4916757;29;20043;-84
2022/07/14 07:58:13;;;;;;;7.43;1.10;;;;;;;22.37;45.73;101272.47;4947854;28;20438;-85
2022/07/14 08:00:41;;;;;;;5.60;1.38;;;;;;;21.41;47.31;101280.34;4917231;29;20051;-84
2022/07/14 08:03:08;;;;;;;10.25;1.58;;;;;;;20.70;49.11;101267.41;4931794;29;20043;-84
2022/07/14 08:05:34;;;;;;;6.40;1.42;;;;;;;20.99;48.79;101276.84;4931225;29;20134;-86
2022/07/14 08:08:01;;;;;;;6.03;2.05;;;;;;;21.44;47.03;101274.88;4898001;29;20074;-85
2022/07/14 08:10:29;;;;;;;7.53;2.00;;;;;;;21.96;46.61;101266.34;4917991;29;20043;-86
2022/07/14 08:12:56;;;;;;;5.95;1.42;;;;;;;22.83;44.42;101251.50;4933985;29;20534;-87
2022/07/14 08:15:24;;;;;;;3.30;0.98;;;;;;;23.51;41.91;101256.00;4935380;28;20095;-85
2022/07/14 08:17:51;;;;;;;4.07;1.27;;;;;;;24.14;40.53;101251.69;4932679;29;20055;-85
2022/07/14 08:20:36;;;;;;;3.47;1.40;;;;;;;24.72;38.36;101249.31;4933589;29;20165;-85
2022/07/14 08:23:07;;;;;;;7.03;1.58;;;;;;;25.17;38.48;101246.63;4932709;28;20648;-86
2022/07/14 08:25:34;;;;;;;4.10;1.35;;;;;;;25.70;38.19;101245.13;4931559;29;20048;-87
2022/07/14 08:28:01;;;;;;;6.43;1.10;;;;;;;26.17;36.59;101239.50;4931215;29;20363;-85
2022/07/14 08:30:34;;;;;;;5.78;1.23;;;;;;;26.55;36.08;101236.09;4919384;29;20043;-86
2022/07/14 08:33:01;;;;;;;;;;;;;;;27.04;34.53;101230.06;4915936;29;20581;-86
2022/07/14 08:35:28;;;;;;;3.85;0.98;;;;;;;27.18;33.92;101218.38;4932656;29;19926;-85
2022/07/14 08:37:56;;;;;;;5.20;1.20;;;;;;;27.36;34.22;101209.97;4918917;29;20061;-84
2022/07/14 08:40:29;;;;;;;1.73;1.17;;;;;;;27.34;33.34;101206.50;4935667;29;20055;-85
2022/07/14 08:42:58;;;;;;;3.50;0.85;;;;;;;27.49;33.66;101208.13;4932147;28;20054;-87
2022/07/14 08:45:30;;;;;;;6.57;1.38;;;;;;;27.79;32.49;101201.50;4932693;29;20454;-84
2022/07/14 08:47:57;;;;;;;2.90;0.88;;;;;;;27.75;32.60;101199.16;4934210;29;20394;-84
2022/07/14 08:50:35;;;;;;;2.15;0.88;;;;;;;28.02;32.03;101204.38;4916667;29;20471;-85
2022/07/14 08:53:04;;;;;;;2.42;1.15;;;;;;;28.55;31.96;101206.66;4916644;29;20410;-85
2022/07/14 08:55:32;;;;;;;2.28;0.73;;;;;;;29.08;30.51;101206.19;4919935;29;20048;-87
2022/07/14 08:58:01;;;;;;;2.10;1.10;;;;;;;28.44;30.41;101201.25;4922954;29;20105;-84
2022/07/14 09:00:28;;;;;;;3.50;0.70;;;;;;;27.80;31.24;101203.22;4916543;29;20053;-87
2022/07/14 09:02:56;;;;;;;4.18;1.20;;;;;;;27.90;30.34;101201.56;4932124;29;20075;-84
2022/07/14 09:05:23;;;;;;;2.97;1.23;;;;;;;28.08;31.00;101209.28;4914489;29;20065;-87
2022/07/14 09:07:57;;;;;;;2.33;1.08;;;;;;;28.56;30.73;101208.38;4918297;29;20059;-86
2022/07/14 09:10:31;;;;;;;3.25;0.80;;;;;;;29.04;29.81;101199.34;4883316;29;20082;-86
2022/07/14 09:13:20;;;;;;;4.28;1.10;;;;;;;29.49;28.92;101195.81;4915936;29;20090;-85
2022/07/14 09:15:51;;;;;;;2.67;0.95;;;;;;;30.13;28.44;101196.91;4892915;29;20047;-85
2022/07/14 09:18:25;;;;;;;4.28;1.73;;;;;;;30.55;28.04;101204.25;4905847;29;20048;-86
2022/07/14 09:20:54;;;;;;;3.35;0.98;;;;;;;31.14;27.10;101200.13;4912517;29;20047;-88
2022/07/14 09:23:38;;;;;;;2.88;0.75;;;;;;;30.31;26.98;101199.94;4902803;29;20127;-84
2022/07/14 09:26:23;;;;;;;2.00;1.00;;;;;;;27.93;30.07;101200.50;4910054;29;20925;-86
2022/07/14 09:28:53;;;;;;;2.95;1.02;;;;;;;27.80;30.99;101207.75;4919919;29;20058;-86
2022/07/14 09:31:39;;;;;;;6.40;2.15;;;;;;;28.88;29.66;101195.16;4917348;29;20436;-85
2022/07/14 09:34:11;;;;;;;6.25;2.45;;;;;;;29.89;28.64;101194.44;4912510;29;20289;-87
2022/07/14 09:36:42;;;;;;;3.22;1.13;;;;;;;30.86;27.18;101189.00;4916776;29;20055;-85
2022/07/14 09:39:14;;;;;;;3.72;0.95;;;;;;;31.68;26.42;101189.97;4916939;29;20051;-85
2022/07/14 09:41:56;;;;;;;5.13;1.10;;;;;;;31.18;25.47;101185.31;4902819;29;20043;-86
2022/07/14 09:44:24;;;;;;;3.50;1.13;;;;;;;31.15;26.36;101194.56;4916721;29;20051;-86
2022/07/14 09:46:57;;;;;;;2.35;1.10;;;;;;;31.40;25.73;101186.13;4915165;29;20119;-86
2022/07/14 09:49:28;;;;;;;4.07;1.08;;;;;;;31.87;25.00;101189.13;4931353;29;20098;-86
2022/07/14 09:52:05;;;;;;;2.03;0.90;;;;;;;32.60;24.06;101180.56;4904574;28;20345;-85
2022/07/14 09:54:45;;;;;;;5.10;1.00;;;;;;;32.80;23.64;101175.16;4936749;28;20545;-86
2022/07/14 09:57:15;;;;;;;5.63;1.30;;;;;;;32.15;24.66;101189.28;4924903;28;20122;-84
2022/07/14 09:59:47;;;;;;;4.63;1.17;;;;;;;31.27;25.51;101180.97;4942490;28;20067;-84
2022/07/14 10:02:23;;;;;;;2.20;0.80;;;;;;;31.83;24.35;101177.69;4934342;28;20443;-86
2022/07/14 10:05:01;;;;;;;2.63;0.77;;;;;;;32.29;24.19;101180.78;4938506;28;20043;-85
2022/07/14 10:07:34;;;;;;;2.17;0.63;;;;;;;32.83;23.46;101172.16;4920609;28;20134;-87
2022/07/14 10:10:09;;;;;;;4.22;1.00;;;;;;;33.35;23.13;101173.53;4934781;28;20095;-86
2022/07/14 10:12:42;;;;;;;2.47;1.13;;;;;;;34.09;22.68;101164.38;4952020;28;20173;-86
2022/07/14 10:15:20;;;;;;;1.30;0.60;;;;;;;35.31;21.64;101163.69;4939577;28;20082;-86
2022/07/14 10:17:51;;;;;;;5.45;1.25;;;;;;;35.68;21.03;101168.72;4926466;28;20115;-85
2022/07/14 10:20:21;;;;;;;1.48;0.75;;;;;;;35.02;21.62;101163.03;4938076;28;20051;-86
2022/07/14 10:22:55;;;;;;;2.97;0.90;;;;;;;34.82;21.64;101167.81;4922284;28;20072;-86
2022/07/14 10:25:26;;;;;;;1.35;0.50;;;;;;;35.50;20.76;101151.69;4936958;28;20047;-86
2022/07/14 10:27:55;;;;;;;3.50;1.00;;;;;;;35.49;20.60;101149.97;4904569;28;20054;-86
2022/07/14 10:31:01;;;;;;;4.60;0.85;;;;;;;35.46;19.99;101151.16;4937863;28;20956;-87
2022/07/14 10:34:18;;;;;;;2.08;0.47;;;;;;;35.99;19.27;101151.78;4924279;29;20411;-86
2022/07/14 10:37:32;;;;;;;3.97;0.60;;;;;;;35.68;19.80;101149.66;4927077;28;20194;-86
2022/07/14 10:40:22;;;;;;;4.60;0.70;;;;;;;36.05;19.61;101155.72;4924079;28;20051;-85
2022/07/14 10:43:15;;;;;;;1.55;0.82;;;;;;;35.83;19.44;101140.84;4924161;29;20043;-88
2022/07/14 10:45:59;;;;;;;4.75;1.48;;;;;;;35.93;19.96;101145.16;4920899;28;20454;-86
2022/07/14 10:48:39;;;;;;;4.68;0.98;;;;;;;35.27;20.64;101150.38;4907382;29;20051;-85
2022/07/14 10:51:21;;;;;;;3.45;0.73;;;;;;;33.90;22.34;101142.81;4946944;28;20047;-86
2022/07/14 10:54:09;;;;;;;0.75;0.40;;;;;;;34.16;20.77;101137.44;4923254;28;20047;-84
2022/07/14 10:56:37;;;;;;;1.35;0.30;;;;;;;35.07;20.26;101138.91;4920586;28;20074;-87
2022/07/14 10:59:35;;;;;;;1.20;0.47;;;;;;;35.55;19.57;101133.84;4934634;28;20055;-88
2022/07/14 11:02:13;;;;;;;1.58;0.60;;;;;;;35.83;19.57;101133.53;4908202;28;20153;-86
2022/07/14 11:04:58;;;;;;;6.18;0.90;;;;;;;36.67;18.41;101129.78;4932827;28;20121;-87
2022/07/14 11:07:48;;;;;;;1.85;0.77;;;;;;;37.26;17.83;101126.69;4949184;28;20469;-85
2022/07/14 11:10:32;;;;;;;1.95;0.45;;;;;;;36.72;18.99;101130.13;4928185;28;20074;-86
2022/07/14 11:13:05;;;;;;;3.72;0.75;;;;;;;36.55;19.33;101129.31;4942414;28;20051;-87
2022/07/14 11:15:55;;;;;;;1.95;0.68;;;;;;;37.46;18.10;101127.13;4938929;28;20054;-85
2022/07/14 11:18:34;;;;;;;2.70;0.90;;;;;;;38.14;17.77;101121.88;4920908;28;20051;-86
2022/07/14 11:21:11;;;;;;;2.67;0.60;;;;;;;37.54;18.08;101129.81;4935830;28;20037;-85
2022/07/14 11:23:55;;;;;;;3.50;0.95;;;;;;;37.90;17.16;101112.84;4947650;28;20051;-87
2022/07/14 11:26:47;;;;;;;2.85;1.00;;;;;;;36.31;18.85;101119.25;4939489;28;20481;-86
2022/07/14 11:29:14;;;;;;;2.15;0.35;;;;;;;35.52;19.83;101119.72;4942232;28;20537;-87
2022/07/14 11:31:53;;;;;;;0.45;0.20;;;;;;;36.50;18.53;101120.81;4941381;28;20046;-86
2022/07/14 11:37:16;;;;;;;0.80;0.50;;;;;;;37.42;17.61;101114.88;4921835;28;20070;-84
2022/07/14 11:39:45;;;;;;;3.38;1.50;;;;;;;38.19;17.39;101113.13;4934764;28;20536;-86
2022/07/14 11:42:17;;;;;;;1.90;0.68;;;;;;;38.70;16.87;101110.56;4924641;28;20047;-84
2022/07/14 11:44:46;;;;;;;;;;;;;;;38.96;16.53;101125.69;4924324;28;20094;-82
2022/07/14 11:47:29;;;;;;;0.90;0.50;;;;;;;39.70;15.85;101121.13;4939309;28;19926;-84